sensor_id;sensor_type;location;lat;lon;timestamp;P1;durP1;ratioP1;P2;durP2;ratioP2
55539;SDS011;41384;51.418;7.286;2023-09-18T00:01:04;5.85;;;2.70;;
55539;SDS011;41384;51.418;7.286;2023-09-18T00:03:30;7.07;;;2.78;;
55539;SDS011;41384;51.418;7.286;2023-09-18T00:05:55;4.57;;;2.30;;
55539;SDS011;41384;51.418;7.286;2023-09-18T00:08:21;4.68;;;2.33;;
55539;SDS011;41384;51.418;7.286;2023-09-18T00:10:51;7.15;;;2.72;;
55539;SDS011;41384;51.418;7.286;2023-09-18T00:13:18;4.68;;;2.80;;
55539;SDS011;41384;51.418;7.286;2023-09-18T00:15:43;5.00;;;2.47;;
55539;SDS011;41384;51.418;7.286;2023-09-18T00:18:11;4.80;;;2.60;;
55539;SDS011;41384;51.418;7.286;2023-09-18T00:20:38;6.57;;;2.70;;
55539;SDS011;41384;51.418;7.286;2023-09-18T00:23:03;4.60;;;2.45;;
55539;SDS011;41384;51.418;7.286;2023-09-18T00:25:28;7.72;;;2.95;;
55539;SDS011;41384;51.418;7.286;2023-09-18T00:27:55;4.70;;;2.17;;
55539;SDS011;41384;51.418;7.286;2023-09-18T00:30:21;3.35;;;2.53;;
55539;SDS011;41384;51.418;7.286;2023-09-18T00:32:46;6.30;;;3.00;;
55539;SDS011;41384;51.418;7.286;2023-09-18T00:35:15;5.07;;;3.03;;
55539;SDS011;41384;51.418;7.286;2023-09-18T00:37:40;7.00;;;2.60;;
55539;SDS011;41384;51.418;7.286;2023-09-18T00:40:06;6.43;;;2.95;;
55539;SDS011;41384;51.418;7.286;2023-09-18T00:42:32;8.02;;;2.83;;
55539;SDS011;41384;51.418;7.286;2023-09-18T00:44:57;5.03;;;2.45;;
55539;SDS011;41384;51.418;7.286;2023-09-18T00:47:23;5.20;;;2.97;;
55539;SDS011;41384;51.418;7.286;2023-09-18T00:49:48;6.35;;;3.30;;
55539;SDS011;41384;51.418;7.286;2023-09-18T00:52:16;5.45;;;2.90;;
55539;SDS011;41384;51.418;7.286;2023-09-18T00:54:44;5.65;;;3.40;;
55539;SDS011;41384;51.418;7.286;2023-09-18T00:57:11;7.00;;;3.03;;
55539;SDS011;41384;51.418;7.286;2023-09-18T00:59:38;3.42;;;2.42;;
55539;SDS011;41384;51.418;7.286;2023-09-18T01:02:03;5.13;;;2.97;;
55539;SDS011;41384;51.418;7.286;2023-09-18T01:04:29;6.00;;;2.60;;
55539;SDS011;41384;51.418;7.286;2023-09-18T01:06:57;5.93;;;3.30;;
55539;SDS011;41384;51.418;7.286;2023-09-18T01:09:24;7.20;;;2.60;;
55539;SDS011;41384;51.418;7.286;2023-09-18T01:11:51;9.55;;;3.05;;
55539;SDS011;41384;51.418;7.286;2023-09-18T01:14:42;4.60;;;3.00;;
55539;SDS011;41384;51.418;7.286;2023-09-18T01:17:15;8.63;;;3.20;;
55539;SDS011;41384;51.418;7.286;2023-09-18T01:19:42;6.05;;;2.75;;
55539;SDS011;41384;51.418;7.286;2023-09-18T01:22:12;8.00;;;3.13;;
55539;SDS011;41384;51.418;7.286;2023-09-18T01:24:40;6.75;;;2.63;;
55539;SDS011;41384;51.418;7.286;2023-09-18T01:27:08;6.50;;;2.70;;
55539;SDS011;41384;51.418;7.286;2023-09-18T01:29:35;4.82;;;2.47;;
55539;SDS011;41384;51.418;7.286;2023-09-18T01:32:00;6.82;;;2.75;;
55539;SDS011;41384;51.418;7.286;2023-09-18T01:34:26;7.07;;;2.80;;
55539;SDS011;41384;51.418;7.286;2023-09-18T01:36:56;4.22;;;2.60;;
55539;SDS011;41384;51.418;7.286;2023-09-18T01:39:23;3.97;;;2.50;;
55539;SDS011;41384;51.418;7.286;2023-09-18T01:41:52;2.83;;;2.03;;
55539;SDS011;41384;51.418;7.286;2023-09-18T01:44:17;5.15;;;2.95;;
55539;SDS011;41384;51.418;7.286;2023-09-18T01:46:43;4.78;;;2.35;;
55539;SDS011;41384;51.418;7.286;2023-09-18T01:49:09;8.10;;;2.40;;
55539;SDS011;41384;51.418;7.286;2023-09-18T01:51:34;6.00;;;2.08;;
55539;SDS011;41384;51.418;7.286;2023-09-18T01:53:59;8.00;;;3.38;;
55539;SDS011;41384;51.418;7.286;2023-09-18T01:56:25;4.65;;;2.92;;
55539;SDS011;41384;51.418;7.286;2023-09-18T01:58:50;4.78;;;2.08;;
55539;SDS011;41384;51.418;7.286;2023-09-18T02:01:15;5.82;;;2.22;;
55539;SDS011;41384;51.418;7.286;2023-09-18T02:03:40;3.92;;;2.40;;
55539;SDS011;41384;51.418;7.286;2023-09-18T02:06:06;7.60;;;2.20;;
55539;SDS011;41384;51.418;7.286;2023-09-18T02:08:32;5.35;;;2.20;;
55539;SDS011;41384;51.418;7.286;2023-09-18T02:10:57;6.70;;;2.20;;
55539;SDS011;41384;51.418;7.286;2023-09-18T02:13:22;8.00;;;3.05;;
55539;SDS011;41384;51.418;7.286;2023-09-18T02:15:47;5.57;;;2.17;;
55539;SDS011;41384;51.418;7.286;2023-09-18T02:18:13;4.15;;;1.95;;
55539;SDS011;41384;51.418;7.286;2023-09-18T02:20:41;4.28;;;2.40;;
55539;SDS011;41384;51.418;7.286;2023-09-18T02:23:09;6.65;;;2.00;;
55539;SDS011;41384;51.418;7.286;2023-09-18T02:25:34;4.78;;;2.10;;
55539;SDS011;41384;51.418;7.286;2023-09-18T02:27:59;4.72;;;2.33;;
55539;SDS011;41384;51.418;7.286;2023-09-18T02:30:24;7.82;;;2.20;;
55539;SDS011;41384;51.418;7.286;2023-09-18T02:32:50;5.65;;;2.25;;
55539;SDS011;41384;51.418;7.286;2023-09-18T02:35:15;3.13;;;2.20;;
55539;SDS011;41384;51.418;7.286;2023-09-18T02:37:40;4.45;;;1.55;;
55539;SDS011;41384;51.418;7.286;2023-09-18T02:40:06;4.30;;;2.17;;
55539;SDS011;41384;51.418;7.286;2023-09-18T02:42:32;6.05;;;2.30;;
55539;SDS011;41384;51.418;7.286;2023-09-18T02:44:58;4.18;;;1.80;;
55539;SDS011;41384;51.418;7.286;2023-09-18T02:47:23;5.28;;;2.00;;
55539;SDS011;41384;51.418;7.286;2023-09-18T02:49:48;3.17;;;2.38;;
55539;SDS011;41384;51.418;7.286;2023-09-18T02:52:14;4.00;;;1.88;;
55539;SDS011;41384;51.418;7.286;2023-09-18T02:54:39;4.40;;;1.80;;
55539;SDS011;41384;51.418;7.286;2023-09-18T02:57:04;17.50;;;2.92;;
55539;SDS011;41384;51.418;7.286;2023-09-18T02:59:30;4.40;;;2.10;;
55539;SDS011;41384;51.418;7.286;2023-09-18T03:01:56;4.15;;;2.10;;
55539;SDS011;41384;51.418;7.286;2023-09-18T03:04:21;2.67;;;1.55;;
55539;SDS011;41384;51.418;7.286;2023-09-18T03:06:46;5.03;;;2.33;;
55539;SDS011;41384;51.418;7.286;2023-09-18T03:09:11;4.22;;;1.67;;
55539;SDS011;41384;51.418;7.286;2023-09-18T03:11:37;4.00;;;1.80;;
55539;SDS011;41384;51.418;7.286;2023-09-18T03:14:02;3.95;;;1.85;;
55539;SDS011;41384;51.418;7.286;2023-09-18T03:16:28;4.75;;;1.90;;
55539;SDS011;41384;51.418;7.286;2023-09-18T03:18:53;4.22;;;1.55;;
55539;SDS011;41384;51.418;7.286;2023-09-18T03:21:18;3.78;;;1.67;;
55539;SDS011;41384;51.418;7.286;2023-09-18T03:23:43;3.95;;;1.95;;
55539;SDS011;41384;51.418;7.286;2023-09-18T03:26:09;4.90;;;2.05;;
55539;SDS011;41384;51.418;7.286;2023-09-18T03:28:34;7.32;;;2.03;;
55539;SDS011;41384;51.418;7.286;2023-09-18T03:30:59;6.00;;;1.92;;
55539;SDS011;41384;51.418;7.286;2023-09-18T03:33:24;4.78;;;2.13;;
55539;SDS011;41384;51.418;7.286;2023-09-18T03:35:50;7.95;;;2.20;;
55539;SDS011;41384;51.418;7.286;2023-09-18T03:38:19;6.53;;;2.13;;
55539;SDS011;41384;51.418;7.286;2023-09-18T03:40:45;2.70;;;1.65;;
55539;SDS011;41384;51.418;7.286;2023-09-18T03:43:11;2.10;;;1.40;;
55539;SDS011;41384;51.418;7.286;2023-09-18T03:45:39;6.55;;;2.30;;
55539;SDS011;41384;51.418;7.286;2023-09-18T03:48:07;4.20;;;2.05;;
55539;SDS011;41384;51.418;7.286;2023-09-18T03:50:33;6.93;;;1.70;;
55539;SDS011;41384;51.418;7.286;2023-09-18T03:52:58;2.40;;;1.42;;
55539;SDS011;41384;51.418;7.286;2023-09-18T03:55:24;3.33;;;1.80;;
55539;SDS011;41384;51.418;7.286;2023-09-18T03:57:49;3.17;;;1.70;;
55539;SDS011;41384;51.418;7.286;2023-09-18T04:00:14;8.07;;;3.35;;
55539;SDS011;41384;51.418;7.286;2023-09-18T04:02:41;5.32;;;2.13;;
55539;SDS011;41384;51.418;7.286;2023-09-18T04:05:06;6.15;;;1.98;;
55539;SDS011;41384;51.418;7.286;2023-09-18T04:07:32;6.68;;;2.20;;
55539;SDS011;41384;51.418;7.286;2023-09-18T04:09:57;3.00;;;1.67;;
55539;SDS011;41384;51.418;7.286;2023-09-18T04:12:23;2.65;;;1.70;;
55539;SDS011;41384;51.418;7.286;2023-09-18T04:14:48;6.68;;;2.47;;
55539;SDS011;41384;51.418;7.286;2023-09-18T04:17:14;4.13;;;2.13;;
55539;SDS011;41384;51.418;7.286;2023-09-18T04:19:40;5.53;;;2.40;;
55539;SDS011;41384;51.418;7.286;2023-09-18T04:22:05;3.30;;;1.75;;
55539;SDS011;41384;51.418;7.286;2023-09-18T04:24:30;5.05;;;2.20;;
55539;SDS011;41384;51.418;7.286;2023-09-18T04:26:56;6.30;;;2.40;;
55539;SDS011;41384;51.418;7.286;2023-09-18T04:29:21;8.75;;;2.30;;
55539;SDS011;41384;51.418;7.286;2023-09-18T04:31:46;4.03;;;2.00;;
55539;SDS011;41384;51.418;7.286;2023-09-18T04:34:13;6.93;;;2.60;;
55539;SDS011;41384;51.418;7.286;2023-09-18T04:36:38;8.18;;;2.38;;
55539;SDS011;41384;51.418;7.286;2023-09-18T04:39:04;4.60;;;1.95;;
55539;SDS011;41384;51.418;7.286;2023-09-18T04:41:30;5.05;;;2.35;;
55539;SDS011;41384;51.418;7.286;2023-09-18T04:43:56;8.63;;;3.03;;
55539;SDS011;41384;51.418;7.286;2023-09-18T04:46:21;5.65;;;2.25;;
55539;SDS011;41384;51.418;7.286;2023-09-18T04:48:46;8.00;;;2.17;;
55539;SDS011;41384;51.418;7.286;2023-09-18T04:51:12;5.93;;;2.05;;
55539;SDS011;41384;51.418;7.286;2023-09-18T04:53:37;5.63;;;1.70;;
55539;SDS011;41384;51.418;7.286;2023-09-18T04:56:03;6.82;;;2.00;;
55539;SDS011;41384;51.418;7.286;2023-09-18T04:58:28;10.40;;;2.60;;
55539;SDS011;41384;51.418;7.286;2023-09-18T05:00:54;5.68;;;2.08;;
55539;SDS011;41384;51.418;7.286;2023-09-18T05:03:20;8.23;;;2.10;;
55539;SDS011;41384;51.418;7.286;2023-09-18T05:05:46;6.07;;;2.05;;
55539;SDS011;41384;51.418;7.286;2023-09-18T05:08:11;8.60;;;2.40;;
55539;SDS011;41384;51.418;7.286;2023-09-18T05:10:37;4.80;;;2.08;;
55539;SDS011;41384;51.418;7.286;2023-09-18T05:13:02;6.65;;;2.40;;
55539;SDS011;41384;51.418;7.286;2023-09-18T05:15:28;6.90;;;2.40;;
55539;SDS011;41384;51.418;7.286;2023-09-18T05:17:57;5.35;;;2.58;;
55539;SDS011;41384;51.418;7.286;2023-09-18T05:20:23;7.43;;;2.35;;
55539;SDS011;41384;51.418;7.286;2023-09-18T05:22:53;9.15;;;2.50;;
55539;SDS011;41384;51.418;7.286;2023-09-18T05:25:20;5.95;;;2.05;;
55539;SDS011;41384;51.418;7.286;2023-09-18T05:27:54;6.60;;;2.00;;
55539;SDS011;41384;51.418;7.286;2023-09-18T05:30:28;7.72;;;2.17;;
55539;SDS011;41384;51.418;7.286;2023-09-18T05:32:56;10.13;;;1.77;;
55539;SDS011;41384;51.418;7.286;2023-09-18T05:35:22;8.05;;;2.05;;
55539;SDS011;41384;51.418;7.286;2023-09-18T05:37:48;7.20;;;2.38;;
55539;SDS011;41384;51.418;7.286;2023-09-18T05:40:14;8.98;;;2.80;;
55539;SDS011;41384;51.418;7.286;2023-09-18T05:42:43;5.55;;;2.45;;
55539;SDS011;41384;51.418;7.286;2023-09-18T05:45:09;48.90;;;4.53;;
55539;SDS011;41384;51.418;7.286;2023-09-18T05:47:36;9.98;;;2.38;;
55539;SDS011;41384;51.418;7.286;2023-09-18T05:50:02;11.63;;;2.25;;
55539;SDS011;41384;51.418;7.286;2023-09-18T05:52:29;7.32;;;2.35;;
55539;SDS011;41384;51.418;7.286;2023-09-18T05:54:54;7.22;;;1.92;;
55539;SDS011;41384;51.418;7.286;2023-09-18T05:57:19;8.27;;;3.03;;
55539;SDS011;41384;51.418;7.286;2023-09-18T05:59:45;10.55;;;2.05;;
55539;SDS011;41384;51.418;7.286;2023-09-18T06:02:10;7.43;;;2.17;;
55539;SDS011;41384;51.418;7.286;2023-09-18T06:04:36;35.17;;;4.95;;
55539;SDS011;41384;51.418;7.286;2023-09-18T06:07:05;7.93;;;2.70;;
55539;SDS011;41384;51.418;7.286;2023-09-18T06:09:30;11.95;;;2.20;;
55539;SDS011;41384;51.418;7.286;2023-09-18T06:11:56;5.55;;;2.00;;
55539;SDS011;41384;51.418;7.286;2023-09-18T06:14:21;7.78;;;2.05;;
55539;SDS011;41384;51.418;7.286;2023-09-18T06:16:47;9.88;;;2.35;;
55539;SDS011;41384;51.418;7.286;2023-09-18T06:19:12;6.00;;;2.17;;
55539;SDS011;41384;51.418;7.286;2023-09-18T06:21:38;5.15;;;2.10;;
55539;SDS011;41384;51.418;7.286;2023-09-18T06:24:03;7.82;;;2.50;;
55539;SDS011;41384;51.418;7.286;2023-09-18T06:26:29;8.70;;;2.67;;
55539;SDS011;41384;51.418;7.286;2023-09-18T06:28:54;8.52;;;2.40;;
55539;SDS011;41384;51.418;7.286;2023-09-18T06:31:20;6.85;;;2.30;;
55539;SDS011;41384;51.418;7.286;2023-09-18T06:33:45;7.05;;;2.13;;
55539;SDS011;41384;51.418;7.286;2023-09-18T06:36:11;8.15;;;1.98;;
55539;SDS011;41384;51.418;7.286;2023-09-18T06:38:36;6.82;;;2.20;;
55539;SDS011;41384;51.418;7.286;2023-09-18T06:41:01;7.03;;;1.70;;
55539;SDS011;41384;51.418;7.286;2023-09-18T06:43:26;8.63;;;1.90;;
55539;SDS011;41384;51.418;7.286;2023-09-18T06:45:52;7.28;;;2.50;;
55539;SDS011;41384;51.418;7.286;2023-09-18T06:48:17;4.97;;;1.90;;
55539;SDS011;41384;51.418;7.286;2023-09-18T06:50:42;8.35;;;2.15;;
55539;SDS011;41384;51.418;7.286;2023-09-18T06:53:08;5.72;;;2.20;;
55539;SDS011;41384;51.418;7.286;2023-09-18T06:55:34;5.22;;;2.10;;
55539;SDS011;41384;51.418;7.286;2023-09-18T06:57:59;6.10;;;2.00;;
55539;SDS011;41384;51.418;7.286;2023-09-18T07:00:24;4.28;;;1.70;;
55539;SDS011;41384;51.418;7.286;2023-09-18T07:02:50;5.40;;;1.60;;
55539;SDS011;41384;51.418;7.286;2023-09-18T07:05:15;8.43;;;1.88;;
55539;SDS011;41384;51.418;7.286;2023-09-18T07:07:41;6.00;;;2.30;;
55539;SDS011;41384;51.418;7.286;2023-09-18T07:10:06;7.28;;;2.17;;
55539;SDS011;41384;51.418;7.286;2023-09-18T07:12:32;6.65;;;1.90;;
55539;SDS011;41384;51.418;7.286;2023-09-18T07:15:00;3.70;;;1.48;;
55539;SDS011;41384;51.418;7.286;2023-09-18T07:17:30;5.15;;;1.58;;
55539;SDS011;41384;51.418;7.286;2023-09-18T07:19:55;3.88;;;1.33;;
55539;SDS011;41384;51.418;7.286;2023-09-18T07:22:20;2.25;;;1.48;;
55539;SDS011;41384;51.418;7.286;2023-09-18T07:24:46;5.18;;;1.50;;
55539;SDS011;41384;51.418;7.286;2023-09-18T07:27:11;6.13;;;1.70;;
55539;SDS011;41384;51.418;7.286;2023-09-18T07:29:36;4.13;;;2.03;;
55539;SDS011;41384;51.418;7.286;2023-09-18T07:32:02;8.07;;;1.33;;
55539;SDS011;41384;51.418;7.286;2023-09-18T07:34:27;3.33;;;1.30;;
55539;SDS011;41384;51.418;7.286;2023-09-18T07:36:52;4.07;;;1.30;;
55539;SDS011;41384;51.418;7.286;2023-09-18T07:39:20;5.60;;;1.60;;
55539;SDS011;41384;51.418;7.286;2023-09-18T07:41:45;2.40;;;1.17;;
55539;SDS011;41384;51.418;7.286;2023-09-18T07:44:12;2.58;;;1.10;;
55539;SDS011;41384;51.418;7.286;2023-09-18T07:46:38;4.22;;;1.50;;
55539;SDS011;41384;51.418;7.286;2023-09-18T07:49:03;2.45;;;1.20;;
55539;SDS011;41384;51.418;7.286;2023-09-18T07:51:29;1.98;;;1.20;;
55539;SDS011;41384;51.418;7.286;2023-09-18T07:53:55;5.57;;;1.38;;
55539;SDS011;41384;51.418;7.286;2023-09-18T07:56:20;3.08;;;1.25;;
55539;SDS011;41384;51.418;7.286;2023-09-18T07:58:46;3.40;;;1.58;;
55539;SDS011;41384;51.418;7.286;2023-09-18T08:01:12;4.40;;;1.38;;
55539;SDS011;41384;51.418;7.286;2023-09-18T08:03:37;2.78;;;1.30;;
55539;SDS011;41384;51.418;7.286;2023-09-18T08:06:03;6.07;;;1.35;;
55539;SDS011;41384;51.418;7.286;2023-09-18T08:08:29;3.67;;;1.77;;
55539;SDS011;41384;51.418;7.286;2023-09-18T08:10:57;2.50;;;1.20;;
55539;SDS011;41384;51.418;7.286;2023-09-18T08:13:23;3.53;;;1.30;;
55539;SDS011;41384;51.418;7.286;2023-09-18T08:15:49;5.22;;;1.20;;
55539;SDS011;41384;51.418;7.286;2023-09-18T08:18:15;2.40;;;1.20;;
55539;SDS011;41384;51.418;7.286;2023-09-18T08:20:41;5.00;;;1.38;;
55539;SDS011;41384;51.418;7.286;2023-09-18T08:23:08;3.25;;;1.27;;
55539;SDS011;41384;51.418;7.286;2023-09-18T08:25:33;4.70;;;1.40;;
55539;SDS011;41384;51.418;7.286;2023-09-18T08:27:59;11.30;;;1.63;;
55539;SDS011;41384;51.418;7.286;2023-09-18T08:30:24;6.95;;;1.60;;
55539;SDS011;41384;51.418;7.286;2023-09-18T08:32:49;2.80;;;1.10;;
55539;SDS011;41384;51.418;7.286;2023-09-18T08:35:15;4.38;;;1.38;;
55539;SDS011;41384;51.418;7.286;2023-09-18T08:37:40;3.90;;;1.30;;
55539;SDS011;41384;51.418;7.286;2023-09-18T08:40:07;3.22;;;1.10;;
55539;SDS011;41384;51.418;7.286;2023-09-18T08:42:39;6.83;;;1.90;;
55539;SDS011;41384;51.418;7.286;2023-09-18T08:45:09;4.10;;;1.40;;
55539;SDS011;41384;51.418;7.286;2023-09-18T08:47:39;3.38;;;1.13;;
55539;SDS011;41384;51.418;7.286;2023-09-18T08:50:05;2.08;;;1.08;;
55539;SDS011;41384;51.418;7.286;2023-09-18T08:52:33;5.05;;;1.30;;
55539;SDS011;41384;51.418;7.286;2023-09-18T08:55:00;4.30;;;1.30;;
55539;SDS011;41384;51.418;7.286;2023-09-18T08:57:26;5.63;;;1.25;;
55539;SDS011;41384;51.418;7.286;2023-09-18T08:59:53;2.75;;;1.35;;
55539;SDS011;41384;51.418;7.286;2023-09-18T09:02:19;3.20;;;0.95;;
55539;SDS011;41384;51.418;7.286;2023-09-18T09:04:44;3.80;;;1.25;;
55539;SDS011;41384;51.418;7.286;2023-09-18T09:07:09;2.65;;;1.30;;
55539;SDS011;41384;51.418;7.286;2023-09-18T09:09:35;3.78;;;1.08;;
55539;SDS011;41384;51.418;7.286;2023-09-18T09:12:00;1.77;;;0.90;;
55539;SDS011;41384;51.418;7.286;2023-09-18T09:14:26;2.70;;;1.10;;
55539;SDS011;41384;51.418;7.286;2023-09-18T09:16:55;2.20;;;1.10;;
55539;SDS011;41384;51.418;7.286;2023-09-18T09:19:28;2.40;;;1.33;;
55539;SDS011;41384;51.418;7.286;2023-09-18T09:22:00;7.40;;;1.05;;
55539;SDS011;41384;51.418;7.286;2023-09-18T09:27:20;1.98;;;1.23;;
55539;SDS011;41384;51.418;7.286;2023-09-18T09:29:57;2.40;;;1.02;;
55539;SDS011;41384;51.418;7.286;2023-09-18T09:32:23;2.58;;;1.02;;
55539;SDS011;41384;51.418;7.286;2023-09-18T09:34:49;3.47;;;1.08;;
55539;SDS011;41384;51.418;7.286;2023-09-18T09:37:14;2.67;;;0.90;;
55539;SDS011;41384;51.418;7.286;2023-09-18T09:39:52;3.92;;;0.90;;
55539;SDS011;41384;51.418;7.286;2023-09-18T09:42:19;3.35;;;1.08;;
55539;SDS011;41384;51.418;7.286;2023-09-18T09:44:55;2.53;;;1.17;;
55539;SDS011;41384;51.418;7.286;2023-09-18T09:47:27;2.10;;;0.90;;
55539;SDS011;41384;51.418;7.286;2023-09-18T09:49:55;2.95;;;0.93;;
55539;SDS011;41384;51.418;7.286;2023-09-18T09:52:20;3.88;;;0.90;;
55539;SDS011;41384;51.418;7.286;2023-09-18T09:54:46;4.13;;;1.33;;
55539;SDS011;41384;51.418;7.286;2023-09-18T09:57:11;3.85;;;0.88;;
55539;SDS011;41384;51.418;7.286;2023-09-18T09:59:37;3.05;;;1.15;;
55539;SDS011;41384;51.418;7.286;2023-09-18T10:02:02;1.70;;;0.95;;
55539;SDS011;41384;51.418;7.286;2023-09-18T10:04:28;4.60;;;1.55;;
55539;SDS011;41384;51.418;7.286;2023-09-18T10:06:58;4.93;;;1.00;;
55539;SDS011;41384;51.418;7.286;2023-09-18T10:09:32;2.65;;;0.88;;
55539;SDS011;41384;51.418;7.286;2023-09-18T10:12:00;3.53;;;1.02;;
55539;SDS011;41384;51.418;7.286;2023-09-18T10:14:30;3.05;;;0.90;;
55539;SDS011;41384;51.418;7.286;2023-09-18T10:16:57;2.53;;;1.00;;
55539;SDS011;41384;51.418;7.286;2023-09-18T10:19:28;6.90;;;1.38;;
55539;SDS011;41384;51.418;7.286;2023-09-18T10:24:45;6.80;;;1.25;;
55539;SDS011;41384;51.418;7.286;2023-09-18T10:27:12;3.92;;;1.08;;
55539;SDS011;41384;51.418;7.286;2023-09-18T10:29:39;2.80;;;1.08;;
55539;SDS011;41384;51.418;7.286;2023-09-18T10:32:07;3.17;;;1.02;;
55539;SDS011;41384;51.418;7.286;2023-09-18T10:34:33;2.33;;;1.00;;
55539;SDS011;41384;51.418;7.286;2023-09-18T10:36:59;2.88;;;0.93;;
55539;SDS011;41384;51.418;7.286;2023-09-18T10:39:31;1.60;;;1.10;;
55539;SDS011;41384;51.418;7.286;2023-09-18T10:42:00;2.88;;;1.15;;
55539;SDS011;41384;51.418;7.286;2023-09-18T10:44:27;1.75;;;1.00;;
55539;SDS011;41384;51.418;7.286;2023-09-18T10:46:53;2.90;;;0.90;;
55539;SDS011;41384;51.418;7.286;2023-09-18T10:49:19;2.47;;;1.00;;
55539;SDS011;41384;51.418;7.286;2023-09-18T10:51:48;2.00;;;0.90;;
55539;SDS011;41384;51.418;7.286;2023-09-18T10:54:19;1.70;;;0.95;;
55539;SDS011;41384;51.418;7.286;2023-09-18T10:56:46;5.38;;;1.20;;
55539;SDS011;41384;51.418;7.286;2023-09-18T10:59:13;3.67;;;0.98;;
55539;SDS011;41384;51.418;7.286;2023-09-18T11:01:39;3.33;;;0.80;;
55539;SDS011;41384;51.418;7.286;2023-09-18T11:04:06;1.92;;;0.85;;
55539;SDS011;41384;51.418;7.286;2023-09-18T11:09:19;1.48;;;0.88;;
55539;SDS011;41384;51.418;7.286;2023-09-18T11:11:45;1.33;;;0.75;;
55539;SDS011;41384;51.418;7.286;2023-09-18T11:14:13;3.60;;;0.80;;
55539;SDS011;41384;51.418;7.286;2023-09-18T11:16:40;5.35;;;0.95;;
55539;SDS011;41384;51.418;7.286;2023-09-18T11:19:12;3.97;;;0.90;;
55539;SDS011;41384;51.418;7.286;2023-09-18T11:21:42;1.73;;;0.70;;
55539;SDS011;41384;51.418;7.286;2023-09-18T11:24:14;2.03;;;0.93;;
55539;SDS011;41384;51.418;7.286;2023-09-18T11:26:48;2.95;;;0.90;;
55539;SDS011;41384;51.418;7.286;2023-09-18T11:29:16;4.88;;;0.98;;
55539;SDS011;41384;51.418;7.286;2023-09-18T11:36:56;2.28;;;0.70;;
55539;SDS011;41384;51.418;7.286;2023-09-18T11:39:38;2.13;;;0.80;;
55539;SDS011;41384;51.418;7.286;2023-09-18T11:42:09;1.40;;;0.90;;
55539;SDS011;41384;51.418;7.286;2023-09-18T11:44:36;1.95;;;1.08;;
55539;SDS011;41384;51.418;7.286;2023-09-18T11:47:06;1.13;;;0.65;;
55539;SDS011;41384;51.418;7.286;2023-09-18T11:49:33;1.33;;;0.68;;
55539;SDS011;41384;51.418;7.286;2023-09-18T11:52:00;3.38;;;0.80;;
55539;SDS011;41384;51.418;7.286;2023-09-18T11:54:27;3.45;;;1.15;;
55539;SDS011;41384;51.418;7.286;2023-09-18T11:56:54;4.07;;;1.10;;
55539;SDS011;41384;51.418;7.286;2023-09-18T11:59:32;3.00;;;1.10;;
55539;SDS011;41384;51.418;7.286;2023-09-18T12:01:58;2.70;;;0.80;;
55539;SDS011;41384;51.418;7.286;2023-09-18T12:04:30;2.67;;;0.82;;
55539;SDS011;41384;51.418;7.286;2023-09-18T12:06:57;1.48;;;0.80;;
55539;SDS011;41384;51.418;7.286;2023-09-18T12:09:26;3.22;;;1.05;;
55539;SDS011;41384;51.418;7.286;2023-09-18T12:11:52;1.77;;;0.93;;
55539;SDS011;41384;51.418;7.286;2023-09-18T12:14:19;1.35;;;0.77;;
55539;SDS011;41384;51.418;7.286;2023-09-18T12:16:45;4.72;;;1.23;;
55539;SDS011;41384;51.418;7.286;2023-09-18T12:19:15;1.92;;;0.95;;
55539;SDS011;41384;51.418;7.286;2023-09-18T12:21:42;2.87;;;0.73;;
55539;SDS011;41384;51.418;7.286;2023-09-18T12:24:23;2.53;;;0.73;;
55539;SDS011;41384;51.418;7.286;2023-09-18T12:26:50;4.05;;;0.85;;
55539;SDS011;41384;51.418;7.286;2023-09-18T12:29:16;2.97;;;1.40;;
55539;SDS011;41384;51.418;7.286;2023-09-18T12:31:41;1.63;;;0.80;;
55539;SDS011;41384;51.418;7.286;2023-09-18T12:34:16;3.17;;;0.90;;
55539;SDS011;41384;51.418;7.286;2023-09-18T12:36:46;4.22;;;1.33;;
55539;SDS011;41384;51.418;7.286;2023-09-18T12:39:13;3.38;;;1.45;;
55539;SDS011;41384;51.418;7.286;2023-09-18T12:41:42;2.20;;;0.95;;
55539;SDS011;41384;51.418;7.286;2023-09-18T12:44:09;2.00;;;1.00;;
55539;SDS011;41384;51.418;7.286;2023-09-18T12:46:35;4.97;;;1.35;;
55539;SDS011;41384;51.418;7.286;2023-09-18T12:49:23;1.92;;;0.90;;
55539;SDS011;41384;51.418;7.286;2023-09-18T12:54:35;4.25;;;1.33;;
55539;SDS011;41384;51.418;7.286;2023-09-18T12:57:10;3.38;;;0.95;;
55539;SDS011;41384;51.418;7.286;2023-09-18T12:59:36;4.78;;;1.20;;
55539;SDS011;41384;51.418;7.286;2023-09-18T13:02:03;3.05;;;1.20;;
55539;SDS011;41384;51.418;7.286;2023-09-18T13:04:30;6.60;;;1.02;;
55539;SDS011;41384;51.418;7.286;2023-09-18T13:07:11;1.70;;;1.00;;
55539;SDS011;41384;51.418;7.286;2023-09-18T13:09:38;2.08;;;1.13;;
55539;SDS011;41384;51.418;7.286;2023-09-18T13:12:04;3.47;;;1.10;;
55539;SDS011;41384;51.418;7.286;2023-09-18T13:14:51;11.75;;;1.63;;
55539;SDS011;41384;51.418;7.286;2023-09-18T13:17:22;3.97;;;1.60;;
55539;SDS011;41384;51.418;7.286;2023-09-18T13:19:49;2.25;;;1.10;;
55539;SDS011;41384;51.418;7.286;2023-09-18T13:22:21;1.95;;;0.90;;
55539;SDS011;41384;51.418;7.286;2023-09-18T13:24:54;5.78;;;1.10;;
55539;SDS011;41384;51.418;7.286;2023-09-18T13:27:21;3.70;;;1.07;;
55539;SDS011;41384;51.418;7.286;2023-09-18T13:29:48;4.68;;;1.23;;
55539;SDS011;41384;51.418;7.286;2023-09-18T13:32:13;2.03;;;0.93;;
55539;SDS011;41384;51.418;7.286;2023-09-18T13:34:39;3.95;;;1.05;;
55539;SDS011;41384;51.418;7.286;2023-09-18T13:37:04;4.47;;;1.00;;
55539;SDS011;41384;51.418;7.286;2023-09-18T13:39:29;1.50;;;1.05;;
55539;SDS011;41384;51.418;7.286;2023-09-18T13:41:55;3.63;;;1.20;;
55539;SDS011;41384;51.418;7.286;2023-09-18T13:44:21;2.72;;;1.17;;
55539;SDS011;41384;51.418;7.286;2023-09-18T13:46:47;1.73;;;0.90;;
55539;SDS011;41384;51.418;7.286;2023-09-18T13:49:12;1.17;;;0.70;;
55539;SDS011;41384;51.418;7.286;2023-09-18T13:51:37;3.63;;;1.00;;
55539;SDS011;41384;51.418;7.286;2023-09-18T13:54:03;1.67;;;1.05;;
55539;SDS011;41384;51.418;7.286;2023-09-18T13:56:28;1.15;;;0.73;;
55539;SDS011;41384;51.418;7.286;2023-09-18T13:58:55;1.80;;;1.30;;
55539;SDS011;41384;51.418;7.286;2023-09-18T14:01:21;3.92;;;1.10;;
55539;SDS011;41384;51.418;7.286;2023-09-18T14:03:47;2.08;;;0.93;;
55539;SDS011;41384;51.418;7.286;2023-09-18T14:06:13;4.68;;;1.02;;
55539;SDS011;41384;51.418;7.286;2023-09-18T14:08:38;1.77;;;0.90;;
55539;SDS011;41384;51.418;7.286;2023-09-18T14:11:05;2.58;;;1.02;;
55539;SDS011;41384;51.418;7.286;2023-09-18T14:13:31;1.50;;;0.90;;
55539;SDS011;41384;51.418;7.286;2023-09-18T14:15:57;4.03;;;1.10;;
55539;SDS011;41384;51.418;7.286;2023-09-18T14:18:22;4.63;;;1.40;;
55539;SDS011;41384;51.418;7.286;2023-09-18T14:20:47;2.00;;;0.65;;
55539;SDS011;41384;51.418;7.286;2023-09-18T14:23:12;1.23;;;0.90;;
55539;SDS011;41384;51.418;7.286;2023-09-18T14:25:38;3.80;;;1.20;;
55539;SDS011;41384;51.418;7.286;2023-09-18T14:28:03;2.03;;;0.95;;
55539;SDS011;41384;51.418;7.286;2023-09-18T14:30:29;2.28;;;0.80;;
55539;SDS011;41384;51.418;7.286;2023-09-18T14:32:56;2.85;;;1.27;;
55539;SDS011;41384;51.418;7.286;2023-09-18T14:35:22;2.80;;;1.20;;
55539;SDS011;41384;51.418;7.286;2023-09-18T14:37:48;3.85;;;1.30;;
55539;SDS011;41384;51.418;7.286;2023-09-18T14:40:14;1.00;;;0.75;;
55539;SDS011;41384;51.418;7.286;2023-09-18T14:42:39;4.32;;;0.88;;
55539;SDS011;41384;51.418;7.286;2023-09-18T14:45:05;1.27;;;0.63;;
55539;SDS011;41384;51.418;7.286;2023-09-18T14:47:31;1.25;;;0.70;;
55539;SDS011;41384;51.418;7.286;2023-09-18T14:49:56;1.58;;;0.60;;
55539;SDS011;41384;51.418;7.286;2023-09-18T14:52:23;1.98;;;1.00;;
55539;SDS011;41384;51.418;7.286;2023-09-18T14:54:50;2.58;;;0.80;;
55539;SDS011;41384;51.418;7.286;2023-09-18T14:57:16;2.97;;;1.35;;
55539;SDS011;41384;51.418;7.286;2023-09-18T14:59:42;2.00;;;0.95;;
55539;SDS011;41384;51.418;7.286;2023-09-18T15:02:12;4.22;;;0.90;;